sensor_id;sensor_type;location;lat;lon;timestamp;P1;durP1;ratioP1;P2;durP2;ratioP2
75035;SDS011;64247;51.540;5.854;2022-12-28T00:00:39;4.53;;;3.13;;
75035;SDS011;64247;51.540;5.854;2022-12-28T00:04:41;3.30;;;2.60;;
75035;SDS011;64247;51.540;5.854;2022-12-28T00:08:43;5.30;;;2.47;;
75035;SDS011;64247;51.540;5.854;2022-12-28T00:10:44;8.10;;;2.95;;
75035;SDS011;64247;51.540;5.854;2022-12-28T00:14:45;4.57;;;2.55;;
75035;SDS011;64247;51.540;5.854;2022-12-28T00:18:47;9.70;;;3.45;;
75035;SDS011;64247;51.540;5.854;2022-12-28T00:23:04;4.25;;;2.90;;
75035;SDS011;64247;51.540;5.854;2022-12-28T00:25:06;4.60;;;2.83;;
75035;SDS011;64247;51.540;5.854;2022-12-28T00:27:07;8.60;;;2.72;;
75035;SDS011;64247;51.540;5.854;2022-12-28T00:29:08;6.90;;;3.35;;
75035;SDS011;64247;51.540;5.854;2022-12-28T00:31:11;4.50;;;3.13;;
75035;SDS011;64247;51.540;5.854;2022-12-28T00:33:13;7.45;;;2.88;;
75035;SDS011;64247;51.540;5.854;2022-12-28T00:35:14;3.17;;;2.22;;
75035;SDS011;64247;51.540;5.854;2022-12-28T00:37:15;6.13;;;3.65;;
75035;SDS011;64247;51.540;5.854;2022-12-28T00:39:16;8.73;;;3.97;;
75035;SDS011;64247;51.540;5.854;2022-12-28T00:41:19;3.17;;;2.40;;
75035;SDS011;64247;51.540;5.854;2022-12-28T00:43:20;5.18;;;3.17;;
75035;SDS011;64247;51.540;5.854;2022-12-28T00:45:21;6.45;;;3.30;;
75035;SDS011;64247;51.540;5.854;2022-12-28T00:47:22;5.45;;;3.42;;
75035;SDS011;64247;51.540;5.854;2022-12-28T00:49:23;5.18;;;3.35;;
75035;SDS011;64247;51.540;5.854;2022-12-28T00:51:23;4.22;;;3.38;;
75035;SDS011;64247;51.540;5.854;2022-12-28T00:53:24;4.00;;;3.22;;
75035;SDS011;64247;51.540;5.854;2022-12-28T00:57:26;3.08;;;2.65;;
75035;SDS011;64247;51.540;5.854;2022-12-28T00:59:27;7.10;;;2.90;;
75035;SDS011;64247;51.540;5.854;2022-12-28T01:01:28;6.18;;;2.58;;
75035;SDS011;64247;51.540;5.854;2022-12-28T01:03:31;6.18;;;3.08;;
75035;SDS011;64247;51.540;5.854;2022-12-28T01:05:32;4.65;;;2.60;;
75035;SDS011;64247;51.540;5.854;2022-12-28T01:07:33;4.93;;;3.38;;
75035;SDS011;64247;51.540;5.854;2022-12-28T01:09:35;4.32;;;3.33;;
75035;SDS011;64247;51.540;5.854;2022-12-28T01:11:35;3.83;;;2.45;;
75035;SDS011;64247;51.540;5.854;2022-12-28T01:15:37;6.88;;;3.83;;
75035;SDS011;64247;51.540;5.854;2022-12-28T01:17:38;8.30;;;3.55;;
75035;SDS011;64247;51.540;5.854;2022-12-28T01:19:39;6.45;;;3.30;;
75035;SDS011;64247;51.540;5.854;2022-12-28T01:21:40;7.00;;;3.63;;
75035;SDS011;64247;51.540;5.854;2022-12-28T01:23:43;2.80;;;2.33;;
75035;SDS011;64247;51.540;5.854;2022-12-28T01:25:45;4.25;;;3.22;;
75035;SDS011;64247;51.540;5.854;2022-12-28T01:27:46;8.20;;;2.85;;
75035;SDS011;64247;51.540;5.854;2022-12-28T01:29:47;4.93;;;2.85;;
75035;SDS011;64247;51.540;5.854;2022-12-28T01:31:50;6.28;;;2.95;;
75035;SDS011;64247;51.540;5.854;2022-12-28T01:33:51;5.60;;;2.80;;
75035;SDS011;64247;51.540;5.854;2022-12-28T01:35:51;4.32;;;2.83;;
75035;SDS011;64247;51.540;5.854;2022-12-28T01:39:56;4.53;;;2.88;;
75035;SDS011;64247;51.540;5.854;2022-12-28T01:42:00;4.85;;;2.78;;
75035;SDS011;64247;51.540;5.854;2022-12-28T01:46:50;3.88;;;3.47;;
75035;SDS011;64247;51.540;5.854;2022-12-28T01:54:25;7.40;;;3.45;;
75035;SDS011;64247;51.540;5.854;2022-12-28T01:56:32;3.60;;;2.70;;
75035;SDS011;64247;51.540;5.854;2022-12-28T01:58:33;5.72;;;2.83;;
75035;SDS011;64247;51.540;5.854;2022-12-28T02:00:35;6.50;;;3.08;;
75035;SDS011;64247;51.540;5.854;2022-12-28T02:02:36;3.45;;;2.78;;
75035;SDS011;64247;51.540;5.854;2022-12-28T02:04:40;3.72;;;3.05;;
75035;SDS011;64247;51.540;5.854;2022-12-28T02:06:41;6.40;;;2.88;;
75035;SDS011;64247;51.540;5.854;2022-12-28T02:11:17;3.40;;;2.00;;
75035;SDS011;64247;51.540;5.854;2022-12-28T02:13:20;4.43;;;2.47;;
75035;SDS011;64247;51.540;5.854;2022-12-28T02:15:24;4.93;;;2.83;;
75035;SDS011;64247;51.540;5.854;2022-12-28T02:17:25;4.47;;;2.95;;
75035;SDS011;64247;51.540;5.854;2022-12-28T02:19:36;6.65;;;2.63;;
75035;SDS011;64247;51.540;5.854;2022-12-28T02:31:07;6.55;;;2.15;;
75035;SDS011;64247;51.540;5.854;2022-12-28T02:33:35;4.05;;;3.10;;
75035;SDS011;64247;51.540;5.854;2022-12-28T02:35:58;4.50;;;2.83;;
75035;SDS011;64247;51.540;5.854;2022-12-28T02:40:48;3.72;;;2.72;;
75035;SDS011;64247;51.540;5.854;2022-12-28T02:43:05;3.70;;;2.72;;
75035;SDS011;64247;51.540;5.854;2022-12-28T02:45:07;3.97;;;2.28;;
75035;SDS011;64247;51.540;5.854;2022-12-28T02:48:08;3.95;;;3.53;;
75035;SDS011;64247;51.540;5.854;2022-12-28T02:50:31;3.88;;;2.83;;
75035;SDS011;64247;51.540;5.854;2022-12-28T02:55:49;4.78;;;2.63;;
75035;SDS011;64247;51.540;5.854;2022-12-28T03:01:40;3.15;;;2.83;;
75035;SDS011;64247;51.540;5.854;2022-12-28T03:10:12;5.10;;;2.83;;
75035;SDS011;64247;51.540;5.854;2022-12-28T03:12:27;5.32;;;3.40;;
75035;SDS011;64247;51.540;5.854;2022-12-28T03:14:39;4.28;;;3.88;;
75035;SDS011;64247;51.540;5.854;2022-12-28T03:16:47;3.72;;;2.92;;
75035;SDS011;64247;51.540;5.854;2022-12-28T03:19:13;4.43;;;3.15;;
75035;SDS011;64247;51.540;5.854;2022-12-28T03:21:34;4.28;;;2.97;;
75035;SDS011;64247;51.540;5.854;2022-12-28T03:23:56;5.03;;;3.60;;
75035;SDS011;64247;51.540;5.854;2022-12-28T03:26:19;5.40;;;3.95;;
75035;SDS011;64247;51.540;5.854;2022-12-28T03:28:42;8.50;;;4.15;;
75035;SDS011;64247;51.540;5.854;2022-12-28T03:31:09;5.07;;;3.58;;
75035;SDS011;64247;51.540;5.854;2022-12-28T03:33:24;4.05;;;3.20;;
75035;SDS011;64247;51.540;5.854;2022-12-28T03:35:26;4.68;;;3.80;;
75035;SDS011;64247;51.540;5.854;2022-12-28T03:38:18;7.53;;;3.40;;
75035;SDS011;64247;51.540;5.854;2022-12-28T03:40:34;5.28;;;4.78;;
75035;SDS011;64247;51.540;5.854;2022-12-28T03:42:49;12.23;;;5.10;;
75035;SDS011;64247;51.540;5.854;2022-12-28T03:48:06;5.55;;;5.05;;
75035;SDS011;64247;51.540;5.854;2022-12-28T03:50:10;5.75;;;3.70;;
75035;SDS011;64247;51.540;5.854;2022-12-28T03:52:12;7.70;;;5.75;;
75035;SDS011;64247;51.540;5.854;2022-12-28T03:54:14;7.03;;;4.78;;
75035;SDS011;64247;51.540;5.854;2022-12-28T03:56:18;7.13;;;5.10;;
75035;SDS011;64247;51.540;5.854;2022-12-28T03:58:27;6.90;;;4.43;;
75035;SDS011;64247;51.540;5.854;2022-12-28T04:00:28;5.68;;;4.90;;
75035;SDS011;64247;51.540;5.854;2022-12-28T04:02:30;5.72;;;4.85;;
75035;SDS011;64247;51.540;5.854;2022-12-28T04:04:31;11.45;;;5.78;;
75035;SDS011;64247;51.540;5.854;2022-12-28T04:06:32;5.45;;;3.85;;
75035;SDS011;64247;51.540;5.854;2022-12-28T04:08:33;5.82;;;4.90;;
75035;SDS011;64247;51.540;5.854;2022-12-28T04:10:34;10.15;;;6.68;;
75035;SDS011;64247;51.540;5.854;2022-12-28T04:12:35;4.25;;;3.67;;
75035;SDS011;64247;51.540;5.854;2022-12-28T04:14:48;6.57;;;4.75;;
75035;SDS011;64247;51.540;5.854;2022-12-28T04:16:48;8.10;;;7.15;;
75035;SDS011;64247;51.540;5.854;2022-12-28T04:18:51;5.60;;;4.97;;
75035;SDS011;64247;51.540;5.854;2022-12-28T04:20:53;7.80;;;5.50;;
75035;SDS011;64247;51.540;5.854;2022-12-28T04:22:54;7.90;;;6.13;;
75035;SDS011;64247;51.540;5.854;2022-12-28T04:24:55;9.60;;;7.35;;
75035;SDS011;64247;51.540;5.854;2022-12-28T04:26:56;9.73;;;7.55;;
75035;SDS011;64247;51.540;5.854;2022-12-28T04:28:57;7.38;;;3.78;;
75035;SDS011;64247;51.540;5.854;2022-12-28T04:31:33;6.38;;;5.78;;
75035;SDS011;64247;51.540;5.854;2022-12-28T04:33:40;8.05;;;5.53;;
75035;SDS011;64247;51.540;5.854;2022-12-28T04:35:41;5.70;;;4.40;;
75035;SDS011;64247;51.540;5.854;2022-12-28T04:37:42;11.35;;;5.45;;
75035;SDS011;64247;51.540;5.854;2022-12-28T04:39:43;7.22;;;5.30;;
75035;SDS011;64247;51.540;5.854;2022-12-28T04:41:44;6.93;;;5.32;;
75035;SDS011;64247;51.540;5.854;2022-12-28T04:43:44;10.95;;;5.00;;
75035;SDS011;64247;51.540;5.854;2022-12-28T04:45:53;7.13;;;4.53;;
75035;SDS011;64247;51.540;5.854;2022-12-28T04:47:57;4.13;;;3.60;;
75035;SDS011;64247;51.540;5.854;2022-12-28T04:49:58;4.20;;;3.15;;
75035;SDS011;64247;51.540;5.854;2022-12-28T04:51:59;6.78;;;4.53;;
75035;SDS011;64247;51.540;5.854;2022-12-28T04:54:00;6.30;;;5.38;;
75035;SDS011;64247;51.540;5.854;2022-12-28T04:56:04;6.95;;;6.28;;
75035;SDS011;64247;51.540;5.854;2022-12-28T04:58:07;6.50;;;5.30;;
75035;SDS011;64247;51.540;5.854;2022-12-28T05:00:08;9.05;;;4.50;;
75035;SDS011;64247;51.540;5.854;2022-12-28T05:02:11;6.47;;;5.57;;
75035;SDS011;64247;51.540;5.854;2022-12-28T05:04:12;4.70;;;3.45;;
75035;SDS011;64247;51.540;5.854;2022-12-28T05:06:14;7.32;;;5.35;;
75035;SDS011;64247;51.540;5.854;2022-12-28T05:08:20;5.30;;;3.80;;
75035;SDS011;64247;51.540;5.854;2022-12-28T05:10:21;6.45;;;5.10;;
75035;SDS011;64247;51.540;5.854;2022-12-28T05:14:23;4.40;;;4.00;;
75035;SDS011;64247;51.540;5.854;2022-12-28T05:18:27;12.15;;;8.00;;
75035;SDS011;64247;51.540;5.854;2022-12-28T05:20:29;8.73;;;5.50;;
75035;SDS011;64247;51.540;5.854;2022-12-28T05:22:29;10.07;;;6.50;;
75035;SDS011;64247;51.540;5.854;2022-12-28T05:24:31;6.90;;;4.72;;
75035;SDS011;64247;51.540;5.854;2022-12-28T05:26:32;10.15;;;7.03;;
75035;SDS011;64247;51.540;5.854;2022-12-28T05:28:34;9.95;;;7.47;;
75035;SDS011;64247;51.540;5.854;2022-12-28T05:30:34;9.60;;;4.45;;
75035;SDS011;64247;51.540;5.854;2022-12-28T05:32:35;7.35;;;5.75;;
75035;SDS011;64247;51.540;5.854;2022-12-28T05:34:36;9.05;;;7.32;;
75035;SDS011;64247;51.540;5.854;2022-12-28T05:36:37;10.82;;;7.15;;
75035;SDS011;64247;51.540;5.854;2022-12-28T05:38:39;7.30;;;5.55;;
75035;SDS011;64247;51.540;5.854;2022-12-28T05:40:40;6.35;;;5.75;;
75035;SDS011;64247;51.540;5.854;2022-12-28T05:42:41;8.48;;;7.57;;
75035;SDS011;64247;51.540;5.854;2022-12-28T05:44:42;4.80;;;4.38;;
75035;SDS011;64247;51.540;5.854;2022-12-28T05:46:42;8.23;;;5.20;;
75035;SDS011;64247;51.540;5.854;2022-12-28T05:48:44;4.07;;;3.67;;
75035;SDS011;64247;51.540;5.854;2022-12-28T05:50:46;12.82;;;7.35;;
75035;SDS011;64247;51.540;5.854;2022-12-28T05:52:47;11.32;;;7.15;;
75035;SDS011;64247;51.540;5.854;2022-12-28T05:54:48;4.82;;;4.15;;
75035;SDS011;64247;51.540;5.854;2022-12-28T05:56:49;6.07;;;4.35;;
75035;SDS011;64247;51.540;5.854;2022-12-28T05:58:52;6.35;;;5.72;;
75035;SDS011;64247;51.540;5.854;2022-12-28T06:01:12;8.82;;;6.53;;
75035;SDS011;64247;51.540;5.854;2022-12-28T06:03:19;5.30;;;4.55;;
75035;SDS011;64247;51.540;5.854;2022-12-28T06:05:20;6.90;;;5.55;;
75035;SDS011;64247;51.540;5.854;2022-12-28T06:07:21;3.40;;;2.45;;
75035;SDS011;64247;51.540;5.854;2022-12-28T06:09:22;6.07;;;3.95;;
75035;SDS011;64247;51.540;5.854;2022-12-28T06:11:25;6.68;;;5.57;;
75035;SDS011;64247;51.540;5.854;2022-12-28T06:13:27;6.00;;;3.40;;
75035;SDS011;64247;51.540;5.854;2022-12-28T06:15:29;5.15;;;4.50;;
75035;SDS011;64247;51.540;5.854;2022-12-28T06:17:30;6.82;;;6.22;;
75035;SDS011;64247;51.540;5.854;2022-12-28T06:19:31;6.97;;;6.28;;
75035;SDS011;64247;51.540;5.854;2022-12-28T06:21:32;6.00;;;5.30;;
75035;SDS011;64247;51.540;5.854;2022-12-28T06:23:36;4.22;;;3.38;;
75035;SDS011;64247;51.540;5.854;2022-12-28T06:25:37;3.88;;;2.40;;
75035;SDS011;64247;51.540;5.854;2022-12-28T06:27:38;9.65;;;5.60;;
75035;SDS011;64247;51.540;5.854;2022-12-28T06:29:39;3.17;;;2.67;;
75035;SDS011;64247;51.540;5.854;2022-12-28T06:31:43;5.68;;;4.25;;
75035;SDS011;64247;51.540;5.854;2022-12-28T06:33:51;4.30;;;3.90;;
75035;SDS011;64247;51.540;5.854;2022-12-28T06:35:55;4.95;;;4.40;;
75035;SDS011;64247;51.540;5.854;2022-12-28T06:37:56;6.85;;;5.65;;
75035;SDS011;64247;51.540;5.854;2022-12-28T06:39:57;4.95;;;4.15;;
75035;SDS011;64247;51.540;5.854;2022-12-28T06:41:57;5.57;;;5.07;;
75035;SDS011;64247;51.540;5.854;2022-12-28T06:43:58;6.43;;;4.47;;
75035;SDS011;64247;51.540;5.854;2022-12-28T06:46:00;6.15;;;5.55;;
75035;SDS011;64247;51.540;5.854;2022-12-28T06:48:02;7.25;;;4.30;;
75035;SDS011;64247;51.540;5.854;2022-12-28T06:50:03;4.38;;;2.97;;
75035;SDS011;64247;51.540;5.854;2022-12-28T06:52:04;4.50;;;3.08;;
75035;SDS011;64247;51.540;5.854;2022-12-28T06:54:05;5.47;;;4.05;;
75035;SDS011;64247;51.540;5.854;2022-12-28T06:56:11;5.18;;;3.45;;
75035;SDS011;64247;51.540;5.854;2022-12-28T06:58:22;6.80;;;4.07;;
75035;SDS011;64247;51.540;5.854;2022-12-28T07:00:24;8.60;;;5.28;;
75035;SDS011;64247;51.540;5.854;2022-12-28T07:02:25;5.15;;;4.45;;
75035;SDS011;64247;51.540;5.854;2022-12-28T07:04:26;8.00;;;5.88;;
75035;SDS011;64247;51.540;5.854;2022-12-28T07:06:27;4.90;;;4.18;;
75035;SDS011;64247;51.540;5.854;2022-12-28T07:08:30;4.88;;;3.72;;
75035;SDS011;64247;51.540;5.854;2022-12-28T07:10:32;2.75;;;2.42;;
75035;SDS011;64247;51.540;5.854;2022-12-28T07:12:33;5.80;;;4.93;;
75035;SDS011;64247;51.540;5.854;2022-12-28T07:14:34;8.48;;;4.18;;
75035;SDS011;64247;51.540;5.854;2022-12-28T07:16:35;4.63;;;3.33;;
75035;SDS011;64247;51.540;5.854;2022-12-28T07:18:36;4.80;;;3.78;;
75035;SDS011;64247;51.540;5.854;2022-12-28T07:20:37;4.93;;;4.28;;
75035;SDS011;64247;51.540;5.854;2022-12-28T07:22:38;4.57;;;3.97;;
75035;SDS011;64247;51.540;5.854;2022-12-28T07:24:39;5.15;;;4.75;;
75035;SDS011;64247;51.540;5.854;2022-12-28T07:26:40;5.05;;;4.55;;
75035;SDS011;64247;51.540;5.854;2022-12-28T07:28:41;4.05;;;3.65;;
75035;SDS011;64247;51.540;5.854;2022-12-28T07:30:45;5.63;;;4.13;;
75035;SDS011;64247;51.540;5.854;2022-12-28T07:32:46;6.72;;;3.40;;
75035;SDS011;64247;51.540;5.854;2022-12-28T07:34:47;7.45;;;4.30;;
75035;SDS011;64247;51.540;5.854;2022-12-28T07:36:47;3.65;;;2.95;;
75035;SDS011;64247;51.540;5.854;2022-12-28T07:38:48;2.70;;;2.38;;
75035;SDS011;64247;51.540;5.854;2022-12-28T07:40:49;4.18;;;2.97;;
75035;SDS011;64247;51.540;5.854;2022-12-28T07:42:50;3.40;;;3.05;;
75035;SDS011;64247;51.540;5.854;2022-12-28T07:44:51;4.43;;;4.00;;
75035;SDS011;64247;51.540;5.854;2022-12-28T07:46:52;2.85;;;2.50;;
75035;SDS011;64247;51.540;5.854;2022-12-28T07:48:53;3.90;;;3.20;;
75035;SDS011;64247;51.540;5.854;2022-12-28T07:50:56;2.88;;;2.17;;
75035;SDS011;64247;51.540;5.854;2022-12-28T07:52:59;3.72;;;3.42;;
75035;SDS011;64247;51.540;5.854;2022-12-28T07:55:00;5.75;;;5.15;;
75035;SDS011;64247;51.540;5.854;2022-12-28T07:57:01;3.63;;;2.95;;
75035;SDS011;64247;51.540;5.854;2022-12-28T07:59:03;3.30;;;2.95;;
75035;SDS011;64247;51.540;5.854;2022-12-28T08:01:15;5.60;;;4.32;;
75035;SDS011;64247;51.540;5.854;2022-12-28T08:03:19;3.42;;;3.08;;
75035;SDS011;64247;51.540;5.854;2022-12-28T08:05:20;5.00;;;3.70;;
75035;SDS011;64247;51.540;5.854;2022-12-28T08:07:21;3.75;;;2.25;;
75035;SDS011;64247;51.540;5.854;2022-12-28T08:09:21;7.32;;;4.82;;
75035;SDS011;64247;51.540;5.854;2022-12-28T08:11:23;3.33;;;3.03;;
75035;SDS011;64247;51.540;5.854;2022-12-28T08:13:35;3.85;;;1.98;;
75035;SDS011;64247;51.540;5.854;2022-12-28T08:15:39;2.90;;;2.70;;
75035;SDS011;64247;51.540;5.854;2022-12-28T08:17:40;3.60;;;3.30;;
75035;SDS011;64247;51.540;5.854;2022-12-28T08:19:40;6.55;;;4.35;;
75035;SDS011;64247;51.540;5.854;2022-12-28T08:21:42;3.60;;;2.45;;
75035;SDS011;64247;51.540;5.854;2022-12-28T08:23:45;5.30;;;3.83;;
75035;SDS011;64247;51.540;5.854;2022-12-28T08:25:47;3.72;;;3.33;;
75035;SDS011;64247;51.540;5.854;2022-12-28T08:27:48;8.57;;;5.68;;
75035;SDS011;64247;51.540;5.854;2022-12-28T08:29:49;6.50;;;5.90;;
75035;SDS011;64247;51.540;5.854;2022-12-28T08:31:50;3.75;;;3.45;;
75035;SDS011;64247;51.540;5.854;2022-12-28T08:33:51;5.95;;;5.45;;
75035;SDS011;64247;51.540;5.854;2022-12-28T08:35:55;4.60;;;4.20;;
75035;SDS011;64247;51.540;5.854;2022-12-28T08:37:56;7.55;;;3.60;;
75035;SDS011;64247;51.540;5.854;2022-12-28T08:39:57;6.57;;;4.25;;
75035;SDS011;64247;51.540;5.854;2022-12-28T08:41:58;6.13;;;2.95;;
75035;SDS011;64247;51.540;5.854;2022-12-28T08:43:59;5.40;;;4.90;;
75035;SDS011;64247;51.540;5.854;2022-12-28T08:46:01;6.40;;;5.78;;
75035;SDS011;64247;51.540;5.854;2022-12-28T08:48:35;6.53;;;5.57;;
75035;SDS011;64247;51.540;5.854;2022-12-28T08:50:36;4.20;;;3.80;;
75035;SDS011;64247;51.540;5.854;2022-12-28T08:52:37;4.93;;;3.72;;
75035;SDS011;64247;51.540;5.854;2022-12-28T08:54:37;7.28;;;4.35;;
75035;SDS011;64247;51.540;5.854;2022-12-28T08:56:39;6.38;;;5.22;;
75035;SDS011;64247;51.540;5.854;2022-12-28T08:58:42;7.60;;;6.82;;
75035;SDS011;64247;51.540;5.854;2022-12-28T09:00:45;9.38;;;5.93;;
75035;SDS011;64247;51.540;5.854;2022-12-28T09:02:46;4.72;;;4.22;;
75035;SDS011;64247;51.540;5.854;2022-12-28T09:04:47;4.75;;;4.35;;
75035;SDS011;64247;51.540;5.854;2022-12-28T09:06:48;3.90;;;3.08;;
75035;SDS011;64247;51.540;5.854;2022-12-28T09:08:51;3.70;;;3.15;;
75035;SDS011;64247;51.540;5.854;2022-12-28T09:10:57;4.13;;;3.75;;
75035;SDS011;64247;51.540;5.854;2022-12-28T09:13:00;4.95;;;4.55;;
75035;SDS011;64247;51.540;5.854;2022-12-28T09:15:01;6.18;;;3.17;;
75035;SDS011;64247;51.540;5.854;2022-12-28T09:17:02;3.58;;;2.97;;
75035;SDS011;64247;51.540;5.854;2022-12-28T09:19:04;8.05;;;3.33;;
75035;SDS011;64247;51.540;5.854;2022-12-28T09:21:11;3.72;;;3.42;;
75035;SDS011;64247;51.540;5.854;2022-12-28T09:23:15;4.05;;;3.65;;
75035;SDS011;64247;51.540;5.854;2022-12-28T09:25:16;4.32;;;3.25;;
75035;SDS011;64247;51.540;5.854;2022-12-28T09:27:17;3.05;;;2.28;;
75035;SDS011;64247;51.540;5.854;2022-12-28T09:29:18;2.38;;;2.15;;
75035;SDS011;64247;51.540;5.854;2022-12-28T09:31:20;4.50;;;4.10;;
75035;SDS011;64247;51.540;5.854;2022-12-28T09:33:22;3.00;;;2.13;;
75035;SDS011;64247;51.540;5.854;2022-12-28T09:35:42;4.50;;;3.85;;
75035;SDS011;64247;51.540;5.854;2022-12-28T09:37:43;5.28;;;3.85;;
75035;SDS011;64247;51.540;5.854;2022-12-28T09:39:44;3.40;;;2.70;;
75035;SDS011;64247;51.540;5.854;2022-12-28T09:41:54;5.40;;;3.50;;
75035;SDS011;64247;51.540;5.854;2022-12-28T09:47:14;3.20;;;2.90;;
75035;SDS011;64247;51.540;5.854;2022-12-28T09:49:41;4.07;;;3.05;;
75035;SDS011;64247;51.540;5.854;2022-12-28T09:55:26;4.55;;;4.00;;
75035;SDS011;64247;51.540;5.854;2022-12-28T09:57:29;4.82;;;4.13;;
75035;SDS011;64247;51.540;5.854;2022-12-28T09:59:37;4.95;;;3.55;;
75035;SDS011;64247;51.540;5.854;2022-12-28T10:01:39;4.13;;;3.72;;
75035;SDS011;64247;51.540;5.854;2022-12-28T10:03:45;4.55;;;3.70;;
75035;SDS011;64247;51.540;5.854;2022-12-28T10:05:47;5.85;;;4.63;;
75035;SDS011;64247;51.540;5.854;2022-12-28T10:08:00;3.20;;;2.10;;
75035;SDS011;64247;51.540;5.854;2022-12-28T10:10:02;4.72;;;3.67;;
75035;SDS011;64247;51.540;5.854;2022-12-28T10:12:12;5.50;;;4.22;;
75035;SDS011;64247;51.540;5.854;2022-12-28T10:14:28;3.53;;;2.78;;
75035;SDS011;64247;51.540;5.854;2022-12-28T10:16:33;5.05;;;4.65;;
75035;SDS011;64247;51.540;5.854;2022-12-28T10:18:35;5.55;;;4.25;;
75035;SDS011;64247;51.540;5.854;2022-12-28T10:20:37;5.78;;;5.18;;
75035;SDS011;64247;51.540;5.854;2022-12-28T10:22:42;3.75;;;3.45;;
75035;SDS011;64247;51.540;5.854;2022-12-28T10:24:47;5.57;;;4.22;;
75035;SDS011;64247;51.540;5.854;2022-12-28T10:26:49;5.32;;;4.78;;
75035;SDS011;64247;51.540;5.854;2022-12-28T10:28:51;6.75;;;5.25;;
75035;SDS011;64247;51.540;5.854;2022-12-28T10:33:38;8.02;;;4.93;;
75035;SDS011;64247;51.540;5.854;2022-12-28T10:35:41;6.43;;;5.65;;
75035;SDS011;64247;51.540;5.854;2022-12-28T10:37:52;5.45;;;4.95;;
75035;SDS011;64247;51.540;5.854;2022-12-28T10:40:08;6.25;;;5.60;;
75035;SDS011;64247;51.540;5.854;2022-12-28T10:42:29;5.80;;;3.70;;
75035;SDS011;64247;51.540;5.854;2022-12-28T10:44:37;6.05;;;5.00;;
75035;SDS011;64247;51.540;5.854;2022-12-28T10:46:47;5.82;;;5.32;;
75035;SDS011;64247;51.540;5.854;2022-12-28T10:48:57;4.35;;;3.83;;
75035;SDS011;64247;51.540;5.854;2022-12-28T10:51:12;2.45;;;2.25;;
75035;SDS011;64247;51.540;5.854;2022-12-28T10:53:27;4.57;;;4.03;;
75035;SDS011;64247;51.540;5.854;2022-12-28T10:55:40;5.90;;;3.83;;
75035;SDS011;64247;51.540;5.854;2022-12-28T10:57:41;5.53;;;4.03;;
75035;SDS011;64247;51.540;5.854;2022-12-28T10:59:42;3.47;;;3.17;;
75035;SDS011;64247;51.540;5.854;2022-12-28T11:01:43;5.85;;;3.50;;
75035;SDS011;64247;51.540;5.854;2022-12-28T11:04:06;3.17;;;2.45;;
75035;SDS011;64247;51.540;5.854;2022-12-28T11:06:23;5.38;;;4.15;;
75035;SDS011;64247;51.540;5.854;2022-12-28T11:08:28;7.25;;;4.25;;
75035;SDS011;64247;51.540;5.854;2022-12-28T11:10:29;4.28;;;3.88;;
75035;SDS011;64247;51.540;5.854;2022-12-28T11:12:31;5.60;;;4.50;;
75035;SDS011;64247;51.540;5.854;2022-12-28T11:14:36;6.03;;;4.75;;
75035;SDS011;64247;51.540;5.854;2022-12-28T11:16:37;2.72;;;2.20;;
75035;SDS011;64247;51.540;5.854;2022-12-28T11:18:40;4.70;;;3.30;;
75035;SDS011;64247;51.540;5.854;2022-12-28T11:20:45;4.68;;;3.55;;
75035;SDS011;64247;51.540;5.854;2022-12-28T11:22:53;5.93;;;3.83;;
75035;SDS011;64247;51.540;5.854;2022-12-28T11:24:55;4.28;;;3.83;;
75035;SDS011;64247;51.540;5.854;2022-12-28T11:27:00;5.43;;;4.25;;
75035;SDS011;64247;51.540;5.854;2022-12-28T11:29:03;3.80;;;3.50;;
75035;SDS011;64247;51.540;5.854;2022-12-28T11:31:04;3.97;;;3.55;;
75035;SDS011;64247;51.540;5.854;2022-12-28T11:33:21;5.75;;;3.60;;
75035;SDS011;64247;51.540;5.854;2022-12-28T11:35:51;5.03;;;4.45;;
75035;SDS011;64247;51.540;5.854;2022-12-28T11:37:56;2.72;;;2.47;;
75035;SDS011;64247;51.540;5.854;2022-12-28T11:40:01;2.65;;;2.40;;
75035;SDS011;64247;51.540;5.854;2022-12-28T11:42:02;6.32;;;3.80;;
75035;SDS011;64247;51.540;5.854;2022-12-28T11:44:03;5.70;;;3.17;;
75035;SDS011;64247;51.540;5.854;2022-12-28T11:46:06;6.20;;;3.22;;
75035;SDS011;64247;51.540;5.854;2022-12-28T11:48:58;7.82;;;4.25;;
75035;SDS011;64247;51.540;5.854;2022-12-28T11:51:13;3.55;;;2.53;;
75035;SDS011;64247;51.540;5.854;2022-12-28T11:59:04;5.65;;;2.35;;
75035;SDS011;64247;51.540;5.854;2022-12-28T12:01:39;4.18;;;3.55;;
75035;SDS011;64247;51.540;5.854;2022-12-28T12:04:29;4.57;;;3.78;;
75035;SDS011;64247;51.540;5.854;2022-12-28T12:09:25;6.18;;;2.85;;
75035;SDS011;64247;51.540;5.854;2022-12-28T12:19:47;4.40;;;2.85;;
75035;SDS011;64247;51.540;5.854;2022-12-28T12:21:58;3.72;;;3.00;;
75035;SDS011;64247;51.540;5.854;2022-12-28T12:24:19;3.80;;;2.78;;
75035;SDS011;64247;51.540;5.854;2022-12-28T12:26:33;2.67;;;2.28;;
75035;SDS011;64247;51.540;5.854;2022-12-28T12:28:51;2.80;;;2.13;;
75035;SDS011;64247;51.540;5.854;2022-12-28T12:31:00;3.85;;;1.85;;
75035;SDS011;64247;51.540;5.854;2022-12-28T12:35:19;5.43;;;2.25;;
75035;SDS011;64247;51.540;5.854;2022-12-28T12:40:23;3.15;;;2.10;;
75035;SDS011;64247;51.540;5.854;2022-12-28T12:46:27;5.60;;;2.42;;
75035;SDS011;64247;51.540;5.854;2022-12-28T12:52:17;6.05;;;2.30;;
75035;SDS011;64247;51.540;5.854;2022-12-28T12:55:32;1.88;;;1.75;;
75035;SDS011;64247;51.540;5.854;2022-12-28T12:58:25;2.88;;;1.88;;
75035;SDS011;64247;51.540;5.854;2022-12-28T13:06:09;3.45;;;2.60;;
75035;SDS011;64247;51.540;5.854;2022-12-28T13:10:51;7.03;;;2.55;;
75035;SDS011;64247;51.540;5.854;2022-12-28T13:12:55;3.08;;;1.83;;
75035;SDS011;64247;51.540;5.854;2022-12-28T13:15:00;4.68;;;2.10;;
75035;SDS011;64247;51.540;5.854;2022-12-28T13:17:03;4.05;;;2.70;;
75035;SDS011;64247;51.540;5.854;2022-12-28T13:19:20;7.53;;;2.47;;
75035;SDS011;64247;51.540;5.854;2022-12-28T13:21:28;3.10;;;1.48;;
75035;SDS011;64247;51.540;5.854;2022-12-28T13:23:43;2.35;;;1.55;;
75035;SDS011;64247;51.540;5.854;2022-12-28T13:25:45;5.88;;;2.05;;
75035;SDS011;64247;51.540;5.854;2022-12-28T13:27:50;5.20;;;2.65;;
75035;SDS011;64247;51.540;5.854;2022-12-28T13:29:52;3.47;;;1.70;;
75035;SDS011;64247;51.540;5.854;2022-12-28T13:31:54;3.30;;;1.55;;
75035;SDS011;64247;51.540;5.854;2022-12-28T13:33:56;4.30;;;1.80;;
75035;SDS011;64247;51.540;5.854;2022-12-28T13:36:17;3.33;;;1.70;;
75035;SDS011;64247;51.540;5.854;2022-12-28T13:38:18;3.75;;;1.60;;
75035;SDS011;64247;51.540;5.854;2022-12-28T13:40:19;3.85;;;1.55;;
75035;SDS011;64247;51.540;5.854;2022-12-28T13:42:29;3.25;;;1.88;;
75035;SDS011;64247;51.540;5.854;2022-12-28T13:44:58;5.75;;;1.75;;
75035;SDS011;64247;51.540;5.854;2022-12-28T13:47:05;1.73;;;1.48;;
75035;SDS011;64247;51.540;5.854;2022-12-28T13:49:53;3.15;;;1.73;;
75035;SDS011;64247;51.540;5.854;2022-12-28T13:54:43;4.65;;;1.48;;
75035;SDS011;64247;51.540;5.854;2022-12-28T13:56:49;2.90;;;2.05;;
75035;SDS011;64247;51.540;5.854;2022-12-28T13:58:55;3.47;;;2.22;;
75035;SDS011;64247;51.540;5.854;2022-12-28T14:01:06;3.35;;;1.38;;
75035;SDS011;64247;51.540;5.854;2022-12-28T14:03:15;2.08;;;1.35;;
75035;SDS011;64247;51.540;5.854;2022-12-28T14:05:25;3.42;;;1.27;;
75035;SDS011;64247;51.540;5.854;2022-12-28T14:07:29;3.95;;;1.88;;
75035;SDS011;64247;51.540;5.854;2022-12-28T14:09:30;1.83;;;1.40;;
75035;SDS011;64247;51.540;5.854;2022-12-28T14:11:32;6.03;;;2.35;;
75035;SDS011;64247;51.540;5.854;2022-12-28T14:13:34;4.13;;;1.38;;
75035;SDS011;64247;51.540;5.854;2022-12-28T14:15:37;3.03;;;1.17;;
75035;SDS011;64247;51.540;5.854;2022-12-28T14:17:38;2.08;;;1.45;;
75035;SDS011;64247;51.540;5.854;2022-12-28T14:19:41;4.50;;;2.00;;
75035;SDS011;64247;51.540;5.854;2022-12-28T14:21:43;3.33;;;1.63;;
75035;SDS011;64247;51.540;5.854;2022-12-28T14:23:44;3.40;;;1.63;;
75035;SDS011;64247;51.540;5.854;2022-12-28T14:25:45;3.85;;;1.60;;
75035;SDS011;64247;51.540;5.854;2022-12-28T14:27:54;4.15;;;2.33;;